Greenwood Lake, New Jersey
Current Conditions -  °F | °C
As of 1:53 AM on Sunday 23 Nov 2014 (Local Time) from KFWN Reporting Station
Broken Clouds Broken Clouds  
Wind Chill: 34°   Ceiling: 10000
Heat Index: 38°   Visibility: 10mi
Dew Point: 21°   Wind: 5mph
Humidity: 51%   Direction: 230°SW
Pressure: 30.15"   Gusts: NA
Location:  41.1652°N, 74.3769°W
Report Text: KFWN 230653Z AUTO 23004KT 10SM BKN100 03/M06 A3015 RMK AO2 SLP214 T00331061
Loading
Personal Weather Stations






























Interactive Weather Map New forecast layout! Learn more

10-Day Weather Forecast

Advertisements
Track Severe Weather on mobile